CST,Max TemperatureF,Mean TemperatureF,Min TemperatureF,Max Dew PointF,MeanDew PointF,Min DewpointF,Max Humidity, Mean Humidity, Min Humidity, Max Sea Level PressureIn, Mean Sea Level PressureIn, Min Sea Level PressureIn, Max VisibilityMiles, Mean VisibilityMiles, Min VisibilityMiles, Max Wind SpeedMPH, Mean Wind SpeedMPH, Max Gust SpeedMPH,PrecipitationIn, CloudCover, Events, WindDirDegrees
2013-2-1,6,3,0,3,-6,-15,100,67,47,30.17,30.11,29.99,10,10,10,12,7,17,0.00,5,,277
2013-2-2,17,8,0,1,-5,-11,92,63,38,30.10,30.05,29.96,10,10,3,12,5,,0.00,2,,292
2013-2-3,15,8,0,9,-1,-11,100,69,45,30.00,29.92,29.86,10,10,3,16,4,21,0.00,5,,299
2013-2-4,15,8,1,5,-1,-9,100,71,41,30.00,29.95,29.88,10,10,10,10,4,16,0.00,1,,286
2013-2-5,23,13,3,16,8,-4,100,75,54,30.07,29.83,29.71,10,8,1,14,6,16,0.00,6,,276
2013-2-6,21,10,-2,21,7,-17,100,82,50,30.23,30.16,30.07,10,7,1,12,2,,0.00,6,,179
2013-2-7,28,24,19,27,21,14,100,93,74,30.15,30.10,30.05,9,3,0,10,1,,0.00,8,,70
2013-2-8,26,14,3,21,12,0,100,79,59,30.40,30.30,30.15,10,10,10,0,0,,0.00,3,,-1
2013-2-9,26,10,-5,21,10,-13,100,85,65,30.38,30.25,30.11,10,9,5,0,0,,0.00,6,,-1
2013-2-10,41,30,19,39,29,19,100,92,80,30.10,29.77,29.33,10,5,1,17,4,23,0.73,8,,143
2013-2-11,41,34,24,39,28,16,100,81,59,29.87,29.50,29.29,10,8,3,16,12,25,0.01,8,,273
2013-2-12,26,24,21,18,16,12,86,72,55,29.98,29.90,29.78,10,10,4,12,6,18,0.00,4,,264
2013-2-13,33,26,19,30,23,16,100,82,60,29.78,29.68,29.64,10,8,2,10,6,,0.00,7,,238
2013-2-14,33,26,19,30,24,9,100,85,63,29.98,29.73,29.60,10,5,0,17,7,23,0.02,8,,2
2013-2-15,21,14,8,16,8,1,92,72,54,30.16,30.10,29.99,10,10,4,14,5,22,0.00,6,,319
2013-2-16,17,8,0,3,0,-9,92,65,45,30.16,30.12,30.09,10,10,10,12,5,17,0.00,5,,333
2013-2-17,17,3,-11,10,-2,-24,100,68,45,30.19,30.11,29.98,10,10,6,14,3,17,0.00,1,,186
2013-2-18,37,27,17,34,26,10,100,80,65,29.97,29.63,29.36,10,9,1,18,8,25,0.04,5,,183
2013-2-19,33,20,8,32,13,0,100,77,53,30.04,29.66,29.36,10,6,1,17,11,31,0.06,8,,319
2013-2-20,23,16,8,7,5,1,79,64,46,30.38,30.26,30.05,10,10,9,21,11,28,0.00,3,,345
2013-2-21,24,17,10,21,15,3,100,84,73,30.45,30.36,30.21,10,10,10,17,8,24,0.00,7,,33
2013-2-22,30,26,21,28,24,18,100,93,74,30.20,29.93,29.79,10,5,0,21,12,28,0.00,8,,82
2013-2-23,30,24,17,27,21,18,100,85,64,29.85,29.79,29.76,10,8,2,9,4,,0.00,8,,277
2013-2-24,35,28,21,25,20,18,100,76,60,30.12,30.03,29.86,10,10,7,10,5,,0.00,7,,275
2013-2-25,35,27,19,28,22,18,100,81,56,30.16,30.13,30.09,10,8,2,14,3,,0.00,7,,215
2013-2-26,33,28,24,27,25,21,100,83,65,30.12,29.96,29.78,10,9,3,31,11,40,0.00,7,,63
2013-2-27,33,30,28,30,28,21,100,88,69,29.80,29.74,29.71,10,5,1,21,15,28,0.00,8,,26
2013-2-28,33,28,23,28,22,16,93,76,64,30.15,30.00,29.80,10,10,2,21,14,31,0.00,8,,21